createdAt,value
2018-04-08T00:02:21.440Z,9.75
2018-04-08T00:06:22.389Z,10.14
2018-04-08T00:12:23.156Z,8.61
2018-04-08T00:16:24.018Z,9.38
2018-04-08T00:18:24.727Z,9.09
2018-04-08T00:22:25.430Z,9.92
2018-04-08T00:28:26.271Z,8.69
2018-04-08T00:32:27.022Z,10.23
2018-04-08T00:38:27.737Z,10.36
2018-04-08T00:44:28.565Z,8.71
2018-04-08T00:48:29.260Z,10.26
2018-04-08T00:54:30.082Z,6.88
2018-04-08T00:58:30.873Z,7.67
2018-04-08T01:04:31.648Z,7.78
2018-04-08T01:15:33.750Z,9.07
2018-04-08T01:19:34.450Z,8.05
2018-04-08T01:25:35.204Z,8.34
2018-04-08T01:31:36.036Z,9.47
2018-04-08T01:35:36.773Z,9.39
2018-04-08T01:41:37.497Z,9.91
2018-04-08T01:45:38.245Z,10.44
2018-04-08T01:47:38.961Z,10.61
2018-04-08T01:51:39.685Z,10.2
2018-04-08T01:57:40.509Z,9.42
2018-04-08T02:01:41.269Z,10.07
2018-04-08T02:07:42.128Z,9.19
2018-04-08T02:11:42.891Z,11.39
2018-04-08T02:13:43.692Z,11.22
2018-04-08T02:17:44.402Z,10.02
2018-04-08T02:23:45.203Z,9.3
2018-04-08T02:27:45.987Z,9.43
2018-04-08T02:33:46.713Z,9.17
2018-04-08T02:39:47.636Z,9.11
2018-04-08T02:43:48.463Z,8.34
2018-04-08T02:49:49.300Z,7.93
2018-04-08T02:53:50.047Z,7.84
2018-04-08T02:55:50.756Z,8.49
2018-04-08T02:59:51.540Z,8.95
2018-04-08T03:05:52.346Z,11.79
2018-04-08T03:09:53.119Z,10.64
2018-04-08T03:15:53.878Z,12.2
2018-04-08T03:19:54.712Z,11.4
2018-04-08T03:21:55.383Z,9.39
2018-04-08T03:25:56.101Z,8.94
2018-04-08T03:31:57.934Z,9.45
2018-04-08T03:35:58.680Z,8.89
2018-04-08T03:41:59.499Z,12.26
2018-04-08T03:48:00.207Z,11.12
2018-04-08T03:52:01.069Z,8.15
2018-04-08T03:58:01.910Z,8.5
2018-04-08T04:02:02.644Z,7.11
2018-04-08T04:04:03.402Z,7.56
2018-04-08T04:14:05.900Z,8.06
2018-04-08T04:14:06.057Z,6.63
2018-04-08T04:18:06.825Z,7.27
2018-04-08T04:24:07.660Z,7.66
2018-04-08T04:28:08.573Z,7.22
2018-04-08T04:30:09.491Z,6.57
2018-04-08T04:34:10.267Z,7.75
2018-04-08T04:40:10.983Z,8.89
2018-04-08T04:44:11.713Z,9.64
2018-04-08T04:50:12.434Z,10.85
2018-04-08T04:56:13.287Z,10.53
2018-04-08T05:00:14.326Z,9.07
2018-04-08T05:06:15.237Z,9.44
2018-04-08T05:10:15.895Z,10.79
2018-04-08T05:12:16.701Z,7.41
2018-04-08T05:16:17.588Z,7.35
2018-04-08T05:22:18.266Z,8.23
2018-04-08T05:26:18.939Z,9.18
2018-04-08T05:32:19.753Z,8.87
2018-04-08T05:36:20.599Z,7.29
2018-04-08T05:38:21.250Z,7.66
2018-04-08T05:42:22.082Z,6.03
2018-04-08T05:48:22.940Z,7.89
2018-04-08T05:52:23.792Z,8.1
2018-04-08T05:58:24.574Z,10.2
2018-04-08T06:04:25.319Z,11.49
2018-04-08T06:08:26.028Z,9.4
2018-04-08T06:14:26.818Z,9.26
2018-04-08T06:18:27.620Z,10.69
2018-04-08T06:20:28.512Z,10.16
2018-04-08T06:24:29.404Z,10.1
2018-04-08T06:30:30.825Z,9.02
2018-04-08T06:34:31.635Z,8.21
2018-04-08T06:40:32.616Z,9.44
2018-04-08T06:44:33.310Z,9.4
2018-04-08T06:46:34.156Z,10.78
2018-04-08T06:50:34.964Z,10.91
2018-04-08T06:56:35.774Z,16.03
2018-04-08T07:00:37.359Z,15.36
2018-04-08T07:06:38.055Z,14.77
2018-04-08T07:12:39.073Z,15.81
2018-04-08T07:16:39.934Z,16.38
2018-04-08T07:22:40.713Z,19.64
2018-04-08T07:26:41.515Z,18.28
2018-04-08T07:32:42.295Z,18.17
2018-04-08T07:38:43.126Z,18.88
2018-04-08T07:42:43.907Z,19.16
2018-04-08T07:48:44.773Z,18.3
2018-04-08T07:52:45.681Z,16.74
2018-04-08T07:54:46.473Z,16.08
2018-04-08T07:58:47.256Z,15.95
2018-04-08T08:04:48.091Z,15.03
2018-04-08T08:08:48.976Z,14.38
2018-04-08T08:14:49.789Z,14.76
2018-04-08T08:20:50.546Z,12.74
2018-04-08T08:24:51.403Z,12.77
2018-04-08T08:30:52.438Z,14.37
2018-04-08T08:34:53.251Z,13.44
2018-04-08T08:40:54.073Z,11.97
2018-04-08T08:46:54.840Z,14.46
2018-04-08T08:50:55.627Z,13.7
2018-04-08T08:56:56.659Z,14.87
2018-04-08T09:00:57.536Z,12.19
2018-04-08T09:02:58.555Z,6.99
2018-04-08T09:06:59.316Z,8.35
2018-04-08T09:13:00.031Z,6.54
2018-04-08T09:17:00.782Z,4.97
2018-04-08T09:23:01.642Z,5.09
2018-04-08T09:29:02.419Z,430.24
2018-04-08T09:33:03.195Z,414.2
2018-04-08T09:39:03.989Z,493.95
2018-04-08T09:43:04.849Z,403.15
2018-04-08T09:45:05.872Z,256.46
2018-04-08T09:49:07.006Z,236.11
2018-04-08T09:55:07.865Z,259.39
2018-04-08T09:59:08.801Z,215.02
2018-04-08T10:05:09.683Z,582.86
2018-04-08T10:09:10.445Z,273.26
2018-04-08T10:11:11.159Z,98.11
2018-04-08T10:15:12.302Z,58.6
2018-04-08T10:21:13.187Z,6.87
2018-04-08T10:25:14.025Z,5.75
2018-04-08T10:31:14.782Z,5.59
2018-04-08T10:37:15.600Z,6.44
2018-04-08T10:41:16.527Z,5.3
2018-04-08T10:47:17.397Z,4.66
2018-04-08T10:51:18.251Z,4.77
2018-04-08T10:53:19.090Z,6.44
2018-04-08T10:57:20.037Z,6.57
2018-04-08T11:03:20.866Z,5.71
2018-04-08T11:07:21.621Z,4.46
2018-04-08T11:13:22.409Z,7.24
2018-04-08T11:19:23.216Z,9.26
2018-04-08T11:23:23.965Z,6.93
2018-04-08T11:29:24.713Z,6.32
2018-04-08T11:33:25.482Z,5.59
2018-04-08T11:39:26.239Z,4.3
2018-04-08T11:45:27.551Z,5.43
2018-04-08T11:49:28.270Z,4.25
2018-04-08T11:55:33.867Z,4.7
2018-04-08T11:59:35.282Z,5.25
2018-04-08T12:01:36.658Z,4.76
2018-04-08T12:05:37.951Z,4.27
2018-04-08T12:11:38.710Z,4.19
2018-04-08T12:15:39.408Z,4.47
2018-04-08T12:21:40.203Z,4.72
2018-04-08T12:27:41.058Z,3.74
2018-04-08T12:31:41.810Z,3.66
2018-04-08T12:37:42.591Z,3.56
2018-04-08T12:41:43.388Z,4.11
2018-04-08T12:47:44.186Z,4.11
2018-04-08T12:53:44.982Z,3.51
2018-04-08T12:57:45.739Z,3.38
2018-04-08T13:03:46.874Z,5.17
2018-04-08T13:07:47.715Z,4.48
2018-04-08T13:09:48.484Z,4.47
2018-04-08T13:13:49.201Z,3.59
2018-04-08T13:19:49.957Z,4.21
2018-04-08T13:23:50.694Z,4.37
2018-04-08T13:29:51.456Z,4.67
2018-04-08T13:35:52.309Z,3.99
2018-04-08T13:39:53.086Z,6.07
2018-04-08T13:45:53.822Z,4.17
2018-04-08T13:49:54.615Z,4.93
2018-04-08T13:51:55.411Z,4.3
2018-04-08T13:55:56.328Z,3.81
2018-04-08T14:01:57.127Z,5.07
2018-04-08T14:05:57.989Z,4.21
2018-04-08T14:11:58.734Z,4.32
2018-04-08T14:15:59.681Z,3.29
2018-04-08T14:18:00.408Z,3.95
2018-04-08T14:22:01.160Z,4.12
2018-04-08T14:28:02.118Z,3.88
2018-04-08T14:32:02.966Z,3.65
2018-04-08T14:38:03.762Z,3.1
2018-04-08T14:44:04.584Z,3.62
2018-04-08T14:48:05.508Z,3.5
2018-04-08T14:54:06.190Z,4.07
2018-04-08T14:58:07.019Z,3.98
2018-04-08T15:00:07.871Z,4.35
2018-04-08T15:04:08.675Z,3.02
2018-04-08T15:10:09.440Z,3.45
2018-04-08T15:14:10.120Z,3.32
2018-04-08T15:20:10.898Z,3.56
2018-04-08T15:26:11.667Z,3.64
2018-04-08T15:30:12.756Z,3.78
2018-04-08T15:36:13.631Z,3.84
2018-04-08T15:40:14.340Z,3.69
2018-04-08T15:46:15.175Z,3.52
2018-04-08T15:52:16.069Z,3.95
2018-04-08T15:56:16.987Z,3.46
2018-04-08T16:02:17.744Z,4.81
2018-04-08T16:06:18.545Z,5.75
2018-04-08T16:08:19.294Z,4.7
2018-04-08T16:12:20.249Z,3.59
2018-04-08T16:18:21.025Z,5.74
2018-04-08T16:22:21.861Z,4.77
2018-04-08T16:28:22.864Z,3.93
2018-04-08T16:34:23.605Z,4.62
2018-04-08T16:38:24.413Z,4.17
2018-04-08T16:44:25.586Z,6.9
2018-04-08T16:48:26.220Z,4.85
2018-04-08T16:50:27.024Z,6.09
2018-04-08T16:54:27.816Z,5.31
2018-04-08T17:00:29.182Z,5.78
2018-04-08T17:04:30.028Z,5.25
2018-04-08T17:10:31.316Z,7.13
2018-04-08T17:14:32.187Z,6.46
2018-04-08T17:16:33.018Z,6.55
2018-04-08T17:20:33.952Z,5.74
2018-04-08T17:26:34.707Z,6.62
2018-04-08T17:30:35.594Z,6.57
2018-04-08T17:36:36.372Z,6.69
2018-04-08T17:42:37.154Z,7.05
2018-04-08T17:46:38.004Z,6.4
2018-04-08T17:52:38.900Z,6.02
2018-04-08T17:56:39.629Z,6.43
2018-04-08T17:58:40.487Z,6.22
2018-04-08T18:02:41.282Z,5.89
2018-04-08T18:08:42.034Z,8.7
2018-04-08T18:12:42.811Z,9.59
2018-04-08T18:18:43.597Z,12.53
2018-04-08T18:22:44.345Z,9.68
2018-04-08T18:24:45.101Z,8.54
2018-04-08T18:28:45.964Z,9.1
2018-04-08T18:34:46.723Z,10.94
2018-04-08T18:38:47.604Z,11.48
2018-04-08T18:44:48.374Z,9.9
2018-04-08T18:50:49.271Z,11.41
2018-04-08T18:54:49.917Z,11.51
2018-04-08T19:00:50.626Z,16.26
2018-04-08T19:04:51.394Z,13.82
2018-04-08T19:06:52.044Z,11.44
2018-04-08T19:10:52.945Z,12.27
2018-04-08T19:16:53.983Z,9.63
2018-04-08T19:20:54.712Z,8.86
2018-04-08T19:26:55.670Z,12.51
2018-04-08T19:32:56.512Z,11.93
2018-04-08T19:36:57.231Z,10.77
2018-04-08T19:42:58.058Z,12.08
2018-04-08T19:46:58.851Z,11.53
2018-04-08T19:52:59.904Z,11.01
2018-04-08T19:59:00.847Z,9
2018-04-08T20:03:01.695Z,8.34
2018-04-08T20:09:02.575Z,8.68
2018-04-08T20:13:03.497Z,8.66
2018-04-08T20:15:04.300Z,9.57
2018-04-08T20:19:05.079Z,9.65
2018-04-08T20:25:05.917Z,9.04
2018-04-08T20:29:06.746Z,9.31
2018-04-08T20:35:07.665Z,11.51
2018-04-08T20:41:08.515Z,8.18
2018-04-08T20:45:09.900Z,8.58
2018-04-08T20:51:10.683Z,9.62
2018-04-08T20:55:11.437Z,8.39
2018-04-08T20:57:12.142Z,10.74
2018-04-08T21:01:12.901Z,9.68
2018-04-08T21:07:13.827Z,9.02
2018-04-08T21:11:14.589Z,8.75
2018-04-08T21:17:15.464Z,9.2
2018-04-08T21:21:16.281Z,9.4
2018-04-08T21:23:17.014Z,10.51
2018-04-08T21:27:17.860Z,8.9
2018-04-08T21:33:18.792Z,9.31
2018-04-08T21:37:19.492Z,8.26
2018-04-08T21:43:20.330Z,7.26
2018-04-08T21:49:21.294Z,8.6
2018-04-08T21:53:22.094Z,7.3
2018-04-08T21:59:23.053Z,6.37
2018-04-08T22:03:23.873Z,5.63
2018-04-08T22:05:24.650Z,7.07
2018-04-08T22:09:25.375Z,6.73
2018-04-08T22:15:26.169Z,6.92
2018-04-08T22:19:27.909Z,7.21
2018-04-08T22:25:28.623Z,8.02
2018-04-08T22:29:29.549Z,6.56
2018-04-08T22:31:30.255Z,6.72
2018-04-08T22:35:31.056Z,6.6
2018-04-08T22:41:31.863Z,6.13
2018-04-08T22:45:32.553Z,5.97
2018-04-08T22:51:33.404Z,6.2
2018-04-08T22:57:34.238Z,5.85
2018-04-08T23:01:34.969Z,5.34
2018-04-08T23:07:35.761Z,5.75
2018-04-08T23:11:36.592Z,5.31
2018-04-08T23:13:37.328Z,5.25
2018-04-08T23:17:39.001Z,5.12
2018-04-08T23:23:40.030Z,4.55
2018-04-08T23:27:41.104Z,4.09
2018-04-08T23:33:41.997Z,4.47
2018-04-08T23:39:42.686Z,7.62
2018-04-08T23:43:43.467Z,5.7
2018-04-08T23:49:44.216Z,5.67
2018-04-08T23:53:45.220Z,6.35
2018-04-08T23:59:46.055Z,5.52
